Time;durP1;ratioP1;P1;durP2;ratioP2;P2;SDS_P1;SDS_P2;PMS_P1;PMS_P2;Temp;Humidity;BMP_temperature;BMP_pressure;BME280_temperature;BME280_humidity;BME280_pressure;Samples;Min_cycle;Max_cycle;Signal;HPM_P1;HPM_P2
2024/04/05 00:00:40;;;;;;;2.57;1.17;;;17.50;77.20;;;;;;5023826;28;20034;-74
2024/04/05 00:03:05;;;;;;;9.75;1.85;;;17.50;77.20;;;;;;5018074;28;20049;-75
2024/04/05 00:05:31;;;;;;;6.87;1.50;;;17.50;77.10;;;;;;5024866;28;20049;-74
2024/04/05 00:07:57;;;;;;;4.80;1.33;;;17.50;77.10;;;;;;5026603;28;20021;-74
2024/04/05 00:10:22;;;;;;;9.73;2.13;;;17.50;77.10;;;;;;5027880;28;20025;-74
2024/04/05 00:12:48;;;;;;;8.17;1.87;;;17.50;77.10;;;;;;5019533;28;20018;-74
2024/04/05 00:15:14;;;;;;;9.23;1.93;;;17.50;77.10;;;;;;5024284;28;20030;-74
2024/04/05 00:17:39;;;;;;;4.10;1.10;;;17.50;77.10;;;;;;5021591;28;20037;-75
2024/04/05 00:20:05;;;;;;;4.70;1.37;;;17.50;77.20;;;;;;5022363;28;20045;-74
2024/04/05 00:22:31;;;;;;;5.78;1.70;;;17.50;77.20;;;;;;5018089;28;20097;-74
2024/04/05 00:24:57;;;;;;;11.67;2.13;;;17.50;77.20;;;;;;5024220;28;20030;-74
2024/04/05 00:27:23;;;;;;;6.43;2.10;;;17.50;77.20;;;;;;5022975;28;20034;-74
2024/04/05 00:29:49;;;;;;;6.30;1.35;;;17.50;77.20;;;;;;5020891;28;20026;-74
2024/04/05 00:32:15;;;;;;;6.40;1.27;;;17.40;77.30;;;;;;5026878;28;20111;-74
2024/04/05 00:34:41;;;;;;;4.68;1.55;;;17.50;77.20;;;;;;5030149;28;20167;-74
2024/04/05 00:37:07;;;;;;;8.23;1.70;;;17.40;77.20;;;;;;5028523;28;20542;-74
2024/04/05 00:39:32;;;;;;;6.03;1.47;;;17.50;77.20;;;;;;5028284;28;20375;-74
2024/04/05 00:41:58;;;;;;;3.67;1.17;;;17.40;77.10;;;;;;5030888;28;20021;-74
2024/04/05 00:44:24;;;;;;;10.97;1.93;;;17.40;77.10;;;;;;5028805;28;20032;-74
2024/04/05 00:46:50;;;;;;;4.83;1.87;;;17.40;77.10;;;;;;5018064;28;20329;-74
2024/04/05 00:49:17;;;;;;;5.20;1.73;;;17.40;77.20;;;;;;5030368;28;20031;-74
2024/04/05 00:51:42;;;;;;;5.55;1.85;;;17.40;77.10;;;;;;5023042;28;20112;-74
2024/04/05 00:54:09;;;;;;;7.23;1.90;;;17.40;77.10;;;;;;5029188;28;20147;-75
2024/04/05 00:56:36;;;;;;;7.53;1.92;;;17.40;77.10;;;;;;5022205;28;20044;-74
2024/04/05 00:59:02;;;;;;;6.65;1.77;;;17.40;77.10;;;;;;5022551;28;20151;-74
2024/04/05 01:01:29;;;;;;;5.60;1.50;;;17.40;77.10;;;;;;5028707;28;20029;-74
2024/04/05 01:03:55;;;;;;;4.82;1.70;;;17.40;77.10;;;;;;5028933;28;20037;-74
2024/04/05 01:06:21;;;;;;;8.10;1.60;;;17.40;77.20;;;;;;5028358;28;20413;-74
2024/04/05 01:08:47;;;;;;;8.38;1.60;;;17.40;77.20;;;;;;5030083;28;20506;-74
2024/04/05 01:11:13;;;;;;;5.00;1.85;;;17.40;77.20;;;;;;5026495;28;20175;-74
2024/04/05 01:13:39;;;;;;;6.67;2.13;;;17.40;77.20;;;;;;5027317;28;20457;-73
2024/04/05 01:16:06;;;;;;;3.20;1.17;;;17.40;77.20;;;;;;5024215;28;20022;-74
2024/04/05 01:18:32;;;;;;;5.70;1.98;;;17.40;77.30;;;;;;5016914;28;20115;-74
2024/04/05 01:21:01;;;;;;;9.90;1.77;;;17.40;77.30;;;;;;5026062;28;20021;-74
2024/04/05 01:23:29;;;;;;;6.80;1.33;;;17.30;77.30;;;;;;5023076;28;20048;-74
2024/04/05 01:25:56;;;;;;;8.32;1.98;;;17.40;77.30;;;;;;5024182;28;20060;-74
2024/04/05 01:28:22;;;;;;;6.60;1.23;;;17.30;77.30;;;;;;5021001;28;20467;-75
2024/04/05 01:30:47;;;;;;;8.50;1.60;;;17.30;77.20;;;;;;5021164;28;20037;-73
2024/04/05 01:33:13;;;;;;;10.27;2.47;;;17.30;77.20;;;;;;5020410;28;20126;-74
2024/04/05 01:35:39;;;;;;;5.20;1.40;;;17.40;77.20;;;;;;5025834;28;20030;-74
2024/04/05 01:38:05;;;;;;;5.13;1.50;;;17.40;77.20;;;;;;5018126;28;20018;-74
2024/04/05 01:40:30;;;;;;;7.43;1.40;;;17.30;77.20;;;;;;5029295;28;20056;-74
2024/04/05 01:42:56;;;;;;;3.97;1.20;;;17.30;77.30;;;;;;5026622;28;20028;-74
2024/04/05 01:45:22;;;;;;;8.97;2.20;;;17.30;77.30;;;;;;5021811;28;20107;-74
2024/04/05 01:47:48;;;;;;;5.23;1.40;;;17.30;77.30;;;;;;5021477;28;20041;-75
2024/04/05 01:50:15;;;;;;;9.27;1.50;;;17.30;77.30;;;;;;5023012;28;20482;-74
2024/04/05 01:52:40;;;;;;;;;;;17.30;77.30;;;;;;5022041;28;20120;-74
2024/04/05 01:55:07;;;;;;;5.20;1.58;;;17.30;77.30;;;;;;5019351;28;20429;-74
2024/04/05 01:57:36;;;;;;;6.68;1.52;;;17.30;77.30;;;;;;5022039;28;20364;-74
2024/04/05 02:00:03;;;;;;;6.82;1.80;;;17.30;77.40;;;;;;5022137;28;20036;-73
2024/04/05 02:02:29;;;;;;;5.25;1.42;;;17.30;77.40;;;;;;5024339;28;20316;-75
2024/04/05 02:04:54;;;;;;;4.97;1.43;;;17.30;77.40;;;;;;5026393;28;20457;-74
2024/04/05 02:07:21;;;;;;;8.87;1.93;;;17.30;77.30;;;;;;5019892;28;20037;-74
2024/04/05 02:09:50;;;;;;;7.53;1.52;;;17.30;77.30;;;;;;5021100;28;20109;-74
2024/04/05 02:12:17;;;;;;;3.85;1.20;;;17.20;77.30;;;;;;5027258;28;20032;-74
2024/04/05 02:14:43;;;;;;;3.00;1.10;;;17.20;77.30;;;;;;5017166;28;20021;-74
2024/04/05 02:17:09;;;;;;;3.90;1.52;;;17.20;77.30;;;;;;5016806;28;20084;-74
2024/04/05 02:19:35;;;;;;;6.03;1.75;;;17.20;77.30;;;;;;5020865;28;20047;-74
2024/04/05 02:22:01;;;;;;;7.72;1.52;;;17.20;77.30;;;;;;5016552;28;20029;-74
2024/04/05 02:24:26;;;;;;;5.07;1.60;;;17.20;77.30;;;;;;5019918;28;20383;-74
2024/04/05 02:26:52;;;;;;;6.13;1.73;;;17.20;77.30;;;;;;5025207;28;20026;-75
2024/04/05 02:29:18;;;;;;;8.07;1.80;;;17.20;77.40;;;;;;5022586;28;20496;-74
2024/04/05 02:31:44;;;;;;;7.40;1.57;;;17.20;77.40;;;;;;5022369;28;20026;-74
2024/04/05 02:34:10;;;;;;;7.55;1.95;;;17.20;77.40;;;;;;5022566;28;20076;-74
2024/04/05 02:36:35;;;;;;;6.03;1.10;;;17.20;77.40;;;;;;5017352;28;20451;-74
2024/04/05 02:39:02;;;;;;;6.27;1.20;;;17.20;77.40;;;;;;5022618;28;20145;-74
2024/04/05 02:41:27;;;;;;;;;;;17.20;77.40;;;;;;5025249;28;20029;-74
2024/04/05 02:43:53;;;;;;;4.00;1.30;;;17.20;77.40;;;;;;5018304;28;20432;-74
2024/04/05 02:46:19;;;;;;;7.43;1.50;;;17.20;77.50;;;;;;5026466;28;20041;-74
2024/04/05 02:48:45;;;;;;;5.03;1.70;;;17.20;77.50;;;;;;5022305;28;20025;-75
2024/04/05 02:51:10;;;;;;;6.07;1.00;;;17.20;77.40;;;;;;5026872;28;20018;-74
2024/04/05 02:53:36;;;;;;;4.90;1.17;;;17.20;77.50;;;;;;5015887;28;20026;-74
2024/04/05 02:56:02;;;;;;;5.40;1.63;;;17.20;77.40;;;;;;5032401;28;20032;-74
2024/04/05 02:58:27;;;;;;;7.20;1.30;;;17.10;77.50;;;;;;5027717;28;20048;-74
2024/04/05 03:00:56;;;;;;;6.80;1.50;;;17.10;77.40;;;;;;5029780;28;20021;-75
2024/04/05 03:03:22;;;;;;;3.30;1.17;;;17.10;77.40;;;;;;5022218;28;20068;-74
2024/04/05 03:05:48;;;;;;;5.57;1.52;;;17.10;77.30;;;;;;5023938;28;20037;-74
2024/04/05 03:08:15;;;;;;;7.27;1.33;;;17.10;77.40;;;;;;5021387;28;20038;-75
2024/04/05 03:10:40;;;;;;;2.35;1.25;;;17.10;77.50;;;;;;5027485;28;20017;-74
2024/04/05 03:13:07;;;;;;;6.00;1.67;;;17.10;77.50;;;;;;5028454;28;20075;-73
2024/04/05 03:15:33;;;;;;;5.60;1.17;;;17.10;77.50;;;;;;5011533;28;20112;-74
2024/04/05 03:17:59;;;;;;;4.45;1.50;;;17.10;77.50;;;;;;5026000;28;20048;-74
2024/04/05 03:20:25;;;;;;;6.13;1.60;;;17.10;77.50;;;;;;5022763;28;20467;-75
2024/04/05 03:22:50;;;;;;;4.20;1.30;;;17.10;77.50;;;;;;5024466;28;20093;-74
2024/04/05 03:25:16;;;;;;;4.60;1.30;;;17.10;77.60;;;;;;5020450;28;20049;-75
2024/04/05 03:27:42;;;;;;;7.23;1.67;;;17.10;77.50;;;;;;5025629;28;20538;-74
2024/04/05 03:30:08;;;;;;;5.37;1.10;;;17.10;77.50;;;;;;5025592;28;20127;-75
2024/04/05 03:32:33;;;;;;;5.28;1.50;;;17.10;77.50;;;;;;5027544;28;20029;-74
2024/04/05 03:34:59;;;;;;;6.70;1.33;;;17.10;77.50;;;;;;5028742;28;20082;-74
2024/04/05 03:37:25;;;;;;;4.97;1.53;;;17.10;77.60;;;;;;5021287;28;20034;-74
2024/04/05 03:39:52;;;;;;;10.00;1.70;;;17.10;77.60;;;;;;5018468;28;20165;-74
2024/04/05 03:42:21;;;;;;;5.60;1.52;;;17.10;77.60;;;;;;5029483;28;20352;-74
2024/04/05 03:44:48;;;;;;;5.30;1.40;;;17.10;77.60;;;;;;5026635;28;20030;-74
2024/04/05 03:47:14;;;;;;;8.75;1.30;;;17.10;77.50;;;;;;5018538;28;20033;-74
2024/04/05 03:49:40;;;;;;;5.57;1.67;;;17.10;77.60;;;;;;5031142;28;20038;-74
2024/04/05 03:52:06;;;;;;;5.40;1.48;;;17.00;77.70;;;;;;5027748;28;20033;-74
2024/04/05 03:54:32;;;;;;;5.27;1.57;;;17.00;77.70;;;;;;5030585;28;20455;-75
2024/04/05 03:56:58;;;;;;;5.07;1.45;;;17.10;77.60;;;;;;5029016;28;20022;-74
2024/04/05 03:59:23;;;;;;;2.87;1.00;;;17.00;77.70;;;;;;5028724;28;20469;-74
2024/04/05 04:01:53;;;;;;;3.77;1.60;;;17.00;77.70;;;;;;5016730;28;20418;-75
2024/04/05 04:04:19;;;;;;;5.30;1.27;;;17.00;77.60;;;;;;5022507;28;20025;-74
2024/04/05 04:06:44;;;;;;;3.53;1.30;;;17.00;77.60;;;;;;5025510;28;20029;-74
2024/04/05 04:09:14;;;;;;;4.30;0.97;;;17.00;77.60;;;;;;5029839;28;20267;-74
2024/04/05 04:11:40;;;;;;;4.40;1.23;;;17.00;77.70;;;;;;5025381;28;20032;-74
2024/04/05 04:14:06;;;;;;;4.13;1.50;;;17.00;77.70;;;;;;5031005;28;20026;-74
2024/04/05 04:16:32;;;;;;;4.13;1.23;;;17.00;77.70;;;;;;5023195;28;20257;-74
2024/04/05 04:18:57;;;;;;;5.17;1.37;;;17.00;77.70;;;;;;5025096;28;20046;-74
2024/04/05 04:21:26;;;;;;;6.23;1.63;;;17.00;77.60;;;;;;5024576;28;20455;-74
2024/04/05 04:23:52;;;;;;;8.38;1.27;;;17.00;77.70;;;;;;5025832;28;20017;-74
2024/04/05 04:26:20;;;;;;;2.35;1.10;;;17.00;77.70;;;;;;5027535;28;20058;-74
2024/04/05 04:28:47;;;;;;;6.07;1.13;;;17.00;77.60;;;;;;5023606;28;20041;-75
2024/04/05 04:31:23;;;;;;;2.70;1.10;;;17.00;77.70;;;;;;5029000;28;20056;-74
2024/04/05 04:33:50;;;;;;;5.13;1.40;;;17.00;77.70;;;;;;5030022;28;20466;-74
2024/04/05 04:36:16;;;;;;;7.35;1.30;;;16.90;77.70;;;;;;5027779;28;20405;-74
2024/04/05 04:38:42;;;;;;;4.17;1.47;;;17.00;77.70;;;;;;5028767;28;20025;-74
2024/04/05 04:41:08;;;;;;;3.83;1.00;;;16.90;77.70;;;;;;5024280;28;20034;-74
2024/04/05 04:43:33;;;;;;;5.83;1.23;;;16.90;77.70;;;;;;5020844;28;20094;-74
2024/04/05 04:45:59;;;;;;;5.63;1.50;;;16.90;77.60;;;;;;5023717;28;20057;-75
2024/04/05 04:48:28;;;;;;;6.43;1.37;;;16.90;77.70;;;;;;5029983;28;20031;-75
2024/04/05 04:50:54;;;;;;;3.45;1.40;;;16.90;77.70;;;;;;5026030;28;20025;-75
2024/04/05 04:53:20;;;;;;;6.43;1.43;;;16.90;77.70;;;;;;5019446;28;20118;-75
2024/04/05 04:55:46;;;;;;;5.32;1.35;;;16.90;77.70;;;;;;5029971;28;20290;-74
2024/04/05 04:58:16;;;;;;;5.00;1.42;;;16.90;77.70;;;;;;5026172;28;20040;-74
2024/04/05 05:00:45;;;;;;;6.55;1.40;;;16.90;77.80;;;;;;5029378;28;20530;-74
2024/04/05 05:03:11;;;;;;;4.75;1.08;;;16.90;77.80;;;;;;5024215;28;20034;-74
2024/04/05 05:05:40;;;;;;;3.73;1.07;;;16.90;77.80;;;;;;5021603;28;20474;-74
2024/04/05 05:08:12;;;;;;;2.03;0.98;;;16.90;77.80;;;;;;5028335;28;20044;-73
2024/04/05 05:10:39;;;;;;;5.75;1.83;;;16.90;77.80;;;;;;5028311;28;20038;-74
2024/04/05 05:13:11;;;;;;;2.97;1.02;;;16.90;77.80;;;;;;5027545;28;20034;-74
2024/04/05 05:15:41;;;;;;;4.68;1.27;;;16.90;77.90;;;;;;5021958;28;20053;-75
2024/04/05 05:18:08;;;;;;;3.58;1.23;;;16.90;77.90;;;;;;5028770;28;20406;-74
2024/04/05 05:20:34;;;;;;;4.72;0.85;;;16.90;77.90;;;;;;5029828;28;20057;-74
2024/04/05 05:23:00;;;;;;;3.40;0.90;;;16.90;77.90;;;;;;5027885;28;20034;-74
2024/04/05 05:25:25;;;;;;;3.27;1.10;;;16.90;77.80;;;;;;5029830;28;20021;-74
2024/04/05 05:27:51;;;;;;;4.10;0.97;;;16.90;77.90;;;;;;5020437;28;20488;-74
2024/04/05 05:30:17;;;;;;;4.03;1.60;;;16.90;77.80;;;;;;5016931;28;20033;-74
2024/04/05 05:32:42;;;;;;;6.17;1.40;;;16.80;77.80;;;;;;5026248;28;20463;-75
2024/04/05 05:35:08;;;;;;;4.00;1.03;;;16.80;77.80;;;;;;5030155;28;20083;-75
2024/04/05 05:37:34;;;;;;;5.53;1.50;;;16.90;77.90;;;;;;5029113;28;20037;-74
2024/04/05 05:40:01;;;;;;;4.00;1.00;;;16.90;77.80;;;;;;5019693;28;20022;-74
2024/04/05 05:42:27;;;;;;;6.35;1.35;;;16.80;77.70;;;;;;5021570;28;20030;-74
2024/04/05 05:44:54;;;;;;;2.10;0.95;;;16.90;77.80;;;;;;5016914;28;20037;-74
2024/04/05 05:47:19;;;;;;;3.63;1.30;;;16.90;77.70;;;;;;5028954;28;20161;-74
2024/04/05 05:49:46;;;;;;;7.40;1.47;;;16.90;77.60;;;;;;5028902;28;20109;-74
2024/04/05 05:52:11;;;;;;;4.07;1.10;;;16.90;77.60;;;;;;5023666;28;20025;-74
2024/04/05 05:54:37;;;;;;;6.97;1.30;;;16.90;77.50;;;;;;5026165;28;20038;-74
2024/04/05 05:57:03;;;;;;;5.63;0.90;;;17.00;77.50;;;;;;5029051;28;20531;-74
2024/04/05 05:59:32;;;;;;;4.75;1.05;;;17.00;77.50;;;;;;5028104;28;20033;-74
2024/04/05 06:01:57;;;;;;;7.85;1.23;;;17.00;77.40;;;;;;5019914;28;20088;-74
2024/04/05 06:04:25;;;;;;;3.80;1.10;;;17.00;77.40;;;;;;5027199;28;20033;-74
2024/04/05 06:06:51;;;;;;;1.60;0.82;;;17.00;77.40;;;;;;5028138;28;20030;-74
2024/04/05 06:09:19;;;;;;;4.00;1.15;;;17.10;77.20;;;;;;5022780;28;20021;-74
2024/04/05 06:11:48;;;;;;;2.00;0.90;;;17.10;77.00;;;;;;5022334;28;20040;-74
2024/04/05 06:14:14;;;;;;;4.68;1.00;;;17.10;77.00;;;;;;5025388;28;20113;-74
2024/04/05 06:16:40;;;;;;;3.28;1.40;;;17.20;76.80;;;;;;5028804;28;20065;-74
2024/04/05 06:19:06;;;;;;;3.70;0.93;;;17.20;76.60;;;;;;5023177;28;20483;-74
2024/04/05 06:21:31;;;;;;;3.20;0.90;;;17.20;76.50;;;;;;5030024;28;20022;-75
2024/04/05 06:23:59;;;;;;;2.40;1.10;;;17.20;76.30;;;;;;5023147;28;20099;-74
2024/04/05 06:26:25;;;;;;;3.28;1.23;;;17.20;76.40;;;;;;5029994;28;20443;-75
2024/04/05 06:28:51;;;;;;;3.78;1.30;;;17.20;76.40;;;;;;5019797;28;20022;-74
2024/04/05 06:31:17;;;;;;;4.50;1.10;;;17.20;76.40;;;;;;5024615;28;20761;-73
2024/04/05 06:33:46;;;;;;;4.82;1.10;;;17.20;76.30;;;;;;5026110;28;20025;-74
2024/04/05 06:36:12;;;;;;;2.92;1.40;;;17.20;76.30;;;;;;5024608;28;20025;-74
2024/04/05 06:38:37;;;;;;;3.40;1.27;;;17.20;76.40;;;;;;5032423;28;20034;-75
2024/04/05 06:41:04;;;;;;;4.13;1.23;;;17.20;76.40;;;;;;5022521;28;20871;-76
2024/04/05 06:43:31;;;;;;;3.40;0.98;;;17.40;76.10;;;;;;5028528;28;20053;-75
2024/04/05 06:46:04;;;;;;;3.60;0.90;;;17.50;75.60;;;;;;5023255;28;20433;-75
2024/04/05 06:48:31;;;;;;;3.15;1.00;;;17.60;75.10;;;;;;5031287;28;20049;-75
2024/04/05 06:50:57;;;;;;;4.00;1.15;;;17.70;74.90;;;;;;5031162;28;20076;-74
2024/04/05 06:53:28;;;;;;;2.55;0.93;;;17.70;74.80;;;;;;5019135;28;20455;-74
2024/04/05 06:55:53;;;;;;;3.35;1.13;;;17.80;74.50;;;;;;5031888;28;20025;-75
2024/04/05 06:58:19;;;;;;;3.73;1.50;;;17.80;74.10;;;;;;5025899;28;20032;-75
2024/04/05 07:00:46;;;;;;;6.60;1.77;;;17.80;74.10;;;;;;5024904;28;21626;-74
2024/04/05 07:03:12;;;;;;;4.28;1.10;;;17.90;74.10;;;;;;5020041;28;20475;-75
2024/04/05 07:05:39;;;;;;;5.05;1.30;;;18.10;73.50;;;;;;5030370;28;20061;-74
2024/04/05 07:08:06;;;;;;;2.90;0.95;;;18.20;73.20;;;;;;5030849;28;20104;-74
2024/04/05 07:10:33;;;;;;;2.42;0.80;;;18.20;73.10;;;;;;5025349;28;20107;-75
2024/04/05 07:12:59;;;;;;;2.75;1.30;;;18.20;73.10;;;;;;5030454;28;20029;-74
2024/04/05 07:15:25;;;;;;;2.13;1.13;;;18.10;73.70;;;;;;5023189;28;20104;-77
2024/04/05 07:17:52;;;;;;;3.53;1.13;;;18.00;73.80;;;;;;5024999;28;20037;-75
2024/04/05 07:20:24;;;;;;;5.30;1.45;;;18.00;74.00;;;;;;5023889;28;20064;-75
2024/04/05 07:22:52;;;;;;;3.22;1.40;;;18.00;73.90;;;;;;5017359;28;20034;-74
2024/04/05 07:25:21;;;;;;;4.10;0.80;;;18.00;73.90;;;;;;5027056;28;20026;-75
2024/04/05 07:27:51;;;;;;;5.97;1.00;;;18.00;74.20;;;;;;5025460;28;20060;-74
2024/04/05 07:30:22;;;;;;;5.32;1.20;;;17.80;75.20;;;;;;5025407;28;20079;-74
2024/04/05 07:32:49;;;;;;;2.47;0.98;;;17.70;75.70;;;;;;5023239;28;20100;-75
2024/04/05 07:35:15;;;;;;;2.78;1.10;;;17.70;75.80;;;;;;5022958;28;20129;-74
2024/04/05 07:37:41;;;;;;;4.13;1.02;;;17.60;75.90;;;;;;5030381;28;20033;-75
2024/04/05 07:40:07;;;;;;;9.13;1.17;;;17.60;75.90;;;;;;5023122;28;20043;-75
2024/04/05 07:42:34;;;;;;;4.50;1.00;;;17.50;76.00;;;;;;5020531;28;20030;-75
2024/04/05 07:45:00;;;;;;;;;;;17.50;76.20;;;;;;5013343;28;20092;-74
2024/04/05 07:47:26;;;;;;;4.80;1.25;;;17.50;76.30;;;;;;5019393;28;19956;-75
2024/04/05 07:49:52;;;;;;;4.70;1.10;;;17.50;76.40;;;;;;5025398;28;20072;-75
2024/04/05 07:52:22;;;;;;;3.88;1.20;;;17.50;76.40;;;;;;5029905;28;20025;-75
2024/04/05 07:54:47;;;;;;;4.15;1.17;;;17.40;76.60;;;;;;5024112;28;20084;-74
2024/04/05 07:57:13;;;;;;;3.83;1.07;;;17.40;76.70;;;;;;5025079;28;20026;-74
2024/04/05 07:59:40;;;;;;;5.00;1.20;;;17.40;76.70;;;;;;5028045;28;20026;-74
2024/04/05 08:02:06;;;;;;;;;;;17.40;76.70;;;;;;5020114;28;20106;-74
2024/04/05 08:04:32;;;;;;;3.38;1.23;;;17.40;76.80;;;;;;5028531;28;20382;-75
2024/04/05 08:06:58;;;;;;;2.45;1.17;;;17.40;76.80;;;;;;5021190;28;20037;-74
2024/04/05 08:09:26;;;;;;;5.87;1.30;;;17.40;76.80;;;;;;5028661;28;20499;-74
2024/04/05 08:11:52;;;;;;;2.85;1.05;;;17.40;76.90;;;;;;5026892;28;20057;-75
2024/04/05 08:14:18;;;;;;;3.27;0.77;;;17.40;77.00;;;;;;5022675;28;20052;-74
2024/04/05 08:16:44;;;;;;;4.63;1.07;;;17.30;77.10;;;;;;5020609;28;20279;-75
2024/04/05 08:19:09;;;;;;;2.67;1.07;;;17.30;77.20;;;;;;5022518;28;20037;-75
2024/04/05 08:21:36;;;;;;;4.70;1.07;;;17.30;77.10;;;;;;5024092;28;20041;-74
2024/04/05 08:24:02;;;;;;;4.05;0.90;;;17.30;77.20;;;;;;5023526;28;20112;-74
2024/04/05 08:26:28;;;;;;;;;;;17.30;77.20;;;;;;5021549;28;20048;-74
2024/04/05 08:28:54;;;;;;;4.03;0.85;;;17.30;77.30;;;;;;5025795;28;19917;-75
2024/04/05 08:31:19;;;;;;;3.10;1.10;;;17.30;77.30;;;;;;5026110;28;20026;-74
2024/04/05 08:33:45;;;;;;;3.50;1.23;;;17.30;77.40;;;;;;5025329;28;20021;-74
2024/04/05 08:36:11;;;;;;;2.47;0.90;;;17.20;77.50;;;;;;5024392;28;20508;-75
2024/04/05 08:38:37;;;;;;;4.87;1.00;;;17.30;77.40;;;;;;5024777;28;20084;-75
2024/04/05 08:41:14;;;;;;;5.00;0.87;;;17.20;77.40;;;;;;5024574;28;20032;-74
2024/04/05 08:43:43;;;;;;;3.42;0.90;;;17.20;77.50;;;;;;5023338;28;20029;-75
2024/04/05 08:46:09;;;;;;;6.63;1.40;;;17.20;77.40;;;;;;5020625;28;20089;-75
2024/04/05 08:48:35;;;;;;;4.00;1.08;;;17.20;77.50;;;;;;5019961;28;20017;-75
2024/04/05 08:51:03;;;;;;;3.53;1.37;;;17.20;77.50;;;;;;5021090;28;20037;-74
2024/04/05 08:53:30;;;;;;;3.45;1.10;;;17.20;77.50;;;;;;5026174;28;20063;-75
2024/04/05 08:55:59;;;;;;;2.67;0.82;;;17.20;77.50;;;;;;5026648;28;20030;-75
2024/04/05 08:58:26;;;;;;;1.92;0.75;;;17.20;77.50;;;;;;5026614;28;20022;-75
2024/04/05 09:00:52;;;;;;;;;;;17.20;77.50;;;;;;5031141;28;20454;-75
2024/04/05 09:03:18;;;;;;;2.20;0.88;;;17.20;77.50;;;;;;5030793;28;19905;-75
2024/04/05 09:05:43;;;;;;;1.00;0.70;;;17.20;77.50;;;;;;5028727;28;20477;-74
2024/04/05 09:08:11;;;;;;;3.77;0.90;;;17.20;77.60;;;;;;5021418;28;20531;-75
2024/04/05 09:10:36;;;;;;;5.85;1.13;;;17.20;77.70;;;;;;5014880;28;20356;-74
2024/04/05 09:13:06;;;;;;;3.13;1.10;;;17.20;77.60;;;;;;5019595;28;20033;-74
2024/04/05 09:15:32;;;;;;;2.95;0.90;;;17.20;77.60;;;;;;5021727;28;20037;-74
2024/04/05 09:17:58;;;;;;;3.80;1.02;;;17.20;77.60;;;;;;5028965;28;20469;-74
2024/04/05 09:20:26;;;;;;;2.63;0.77;;;17.20;77.60;;;;;;5025317;28;20116;-74
2024/04/05 09:23:01;;;;;;;3.83;0.60;;;17.20;77.60;;;;;;5020216;28;20471;-75
2024/04/05 09:25:31;;;;;;;3.73;1.07;;;17.20;77.60;;;;;;5025324;28;20804;-74
2024/04/05 09:28:04;;;;;;;2.20;0.82;;;17.20;77.60;;;;;;5029169;28;20391;-75
2024/04/05 09:30:30;;;;;;;2.58;0.85;;;17.20;77.60;;;;;;5019528;28;20049;-75
2024/04/05 09:32:57;;;;;;;3.40;0.80;;;17.20;77.60;;;;;;5023933;28;20025;-75
2024/04/05 09:35:26;;;;;;;3.45;1.00;;;17.20;77.60;;;;;;5022339;28;20378;-74
2024/04/05 09:37:54;;;;;;;1.23;0.70;;;17.20;77.60;;;;;;5024667;28;20052;-74
2024/04/05 09:40:20;;;;;;;1.83;0.80;;;17.20;77.50;;;;;;5024929;28;20025;-74
2024/04/05 09:42:46;;;;;;;3.55;1.10;;;17.20;77.50;;;;;;5022648;28;20030;-75
2024/04/05 09:45:12;;;;;;;1.60;0.68;;;17.20;77.40;;;;;;5019277;28;20032;-75
2024/04/05 09:47:40;;;;;;;1.63;0.80;;;17.20;77.30;;;;;;5027803;28;20476;-74
2024/04/05 09:50:08;;;;;;;1.90;0.80;;;17.20;77.30;;;;;;5026957;28;20029;-75
2024/04/05 09:52:43;;;;;;;2.47;0.85;;;17.30;77.10;;;;;;5027022;28;20082;-74
2024/04/05 09:55:16;;;;;;;1.75;0.68;;;17.40;76.90;;;;;;5027672;28;20025;-75
2024/04/05 09:57:45;;;;;;;5.10;1.30;;;17.50;76.60;;;;;;5027710;28;20458;-74
2024/04/05 10:00:14;;;;;;;0.88;0.50;;;17.50;76.50;;;;;;5013810;28;20036;-75
2024/04/05 10:02:47;;;;;;;2.33;0.82;;;17.60;76.20;;;;;;5020275;28;20025;-74
2024/04/05 10:05:29;;;;;;;2.42;0.93;;;17.60;75.90;;;;;;5019271;28;20033;-75
2024/04/05 10:07:56;;;;;;;4.03;0.80;;;17.60;76.20;;;;;;5027671;28;20037;-74
2024/04/05 10:10:34;;;;;;;2.60;0.93;;;17.50;76.60;;;;;;5022549;28;20030;-75
2024/04/05 10:13:16;;;;;;;18.00;1.83;;;17.50;76.80;;;;;;5028959;28;20363;-75
2024/04/05 10:15:57;;;;;;;41.35;25.23;;;17.70;76.80;;;;;;5023021;28;20112;-77
2024/04/05 10:18:37;;;;;;;20.08;14.02;;;17.70;76.90;;;;;;5016007;28;20030;-78
2024/04/05 10:21:04;;;;;;;8.52;4.95;;;17.60;77.40;;;;;;5021421;28;20030;-77
2024/04/05 10:23:30;;;;;;;;;;;17.60;77.90;;;;;;5024703;28;20448;-79
2024/04/05 10:25:59;;;;;;;28.55;24.77;;;17.60;78.00;;;;;;5020986;28;19993;-77
2024/04/05 10:28:26;;;;;;;27.35;23.85;;;17.70;78.10;;;;;;5024981;28;20091;-78
2024/04/05 10:30:54;;;;;;;24.15;21.75;;;17.60;78.30;;;;;;5021791;28;20029;-78
2024/04/05 10:33:21;;;;;;;18.13;13.02;;;17.60;78.20;;;;;;5019120;28;20034;-78
2024/04/05 10:35:48;;;;;;;19.92;12.02;;;17.70;78.20;;;;;;5026787;28;20026;-79
2024/04/05 10:38:16;;;;;;;88.85;79.93;;;17.70;78.00;;;;;;5027521;28;20033;-78
2024/04/05 10:40:55;;;;;;;15.77;12.88;;;17.70;78.30;;;;;;5020243;28;20017;-78
2024/04/05 10:43:21;;;;;;;15.32;12.75;;;17.70;77.80;;;;;;5023744;28;20025;-78
2024/04/05 10:45:53;;;;;;;17.27;12.37;;;17.80;77.80;;;;;;5024590;28;20094;-78
2024/04/05 10:48:19;;;;;;;14.38;12.00;;;17.90;77.60;;;;;;5026319;28;20044;-78
2024/04/05 10:50:45;;;;;;;21.00;10.67;;;17.90;77.30;;;;;;5027459;28;20741;-79
2024/04/05 10:53:18;;;;;;;15.53;10.30;;;18.00;77.30;;;;;;5020961;28;20748;-79
2024/04/05 10:55:45;;;;;;;14.05;9.85;;;18.00;77.40;;;;;;5014978;28;20041;-78
2024/04/05 10:58:12;;;;;;;12.82;9.57;;;17.90;77.60;;;;;;5013714;28;20471;-77
2024/04/05 11:00:38;;;;;;;;;;;17.90;77.90;;;;;;5017259;28;20029;-80
2024/04/05 11:03:08;;;;;;;18.73;8.73;;;18.00;77.70;;;;;;5018061;28;19915;-79
2024/04/05 11:05:34;;;;;;;17.38;9.55;;;17.90;77.90;;;;;;5032065;28;20137;-81
2024/04/05 11:08:03;;;;;;;164.53;115.43;;;17.80;78.10;;;;;;5022828;28;20112;-82
2024/04/05 11:10:38;;;;;;;46.25;31.08;;;17.80;78.60;;;;;;5022849;28;20302;-82
2024/04/05 11:13:18;;;;;;;36.30;24.92;;;17.80;78.60;;;;;;5031489;28;20049;-81
2024/04/05 11:15:44;;;;;;;34.60;25.52;;;17.80;78.70;;;;;;5030693;28;20522;-80
2024/04/05 11:18:11;;;;;;;27.05;22.10;;;17.80;78.80;;;;;;5032301;28;20467;-82
2024/04/05 11:20:39;;;;;;;37.58;21.92;;;17.80;78.80;;;;;;5032213;28;20042;-81
2024/04/05 11:23:19;;;;;;;29.00;19.75;;;17.80;78.90;;;;;;5034477;28;20366;-80
2024/04/05 11:25:55;;;;;;;25.20;18.35;;;17.80;79.00;;;;;;5018615;28;20025;-80
2024/04/05 11:28:23;;;;;;;25.02;18.33;;;17.80;79.10;;;;;;5029318;28;20477;-80
2024/04/05 11:30:50;;;;;;;25.08;16.70;;;17.80;79.20;;;;;;5023599;28;20038;-81
2024/04/05 11:33:15;;;;;;;20.27;16.50;;;17.80;79.40;;;;;;5029673;28;20043;-82
2024/04/05 11:35:43;;;;;;;91.10;49.87;;;17.80;79.40;;;;;;5025055;28;20029;-81
2024/04/05 11:38:09;;;;;;;49.85;29.15;;;17.80;79.50;;;;;;5025918;28;20025;-80
2024/04/05 11:40:34;;;;;;;31.10;18.63;;;17.80;79.50;;;;;;5027096;28;20057;-80
2024/04/05 11:43:01;;;;;;;28.93;19.77;;;17.80;79.50;;;;;;5026709;28;20478;-82
2024/04/05 11:45:27;;;;;;;29.45;17.85;;;17.80;79.60;;;;;;5032823;28;20037;-79
2024/04/05 11:47:54;;;;;;;31.60;17.43;;;17.80;79.50;;;;;;5024799;28;20038;-81
2024/04/05 11:50:19;;;;;;;24.33;15.45;;;17.80;79.50;;;;;;5028701;28;20036;-79
2024/04/05 11:52:45;;;;;;;27.13;15.80;;;17.80;79.50;;;;;;5030651;28;20030;-80
2024/04/05 11:55:11;;;;;;;23.67;14.47;;;17.90;79.20;;;;;;5022743;28;20026;-80
2024/04/05 11:57:37;;;;;;;19.83;14.03;;;18.10;78.80;;;;;;5031229;28;20792;-80
2024/04/05 12:00:10;;;;;;;21.27;13.30;;;18.10;78.60;;;;;;5029536;28;20029;-79
2024/04/05 12:02:37;;;;;;;21.80;12.43;;;18.30;78.00;;;;;;5023914;28;20025;-80
2024/04/05 12:05:03;;;;;;;20.55;12.60;;;18.60;76.90;;;;;;5027617;28;20374;-77
2024/04/05 12:07:29;;;;;;;88.77;46.33;;;18.80;76.30;;;;;;5030601;28;20112;-82
2024/04/05 12:09:55;;;;;;;21.37;14.43;;;18.80;76.30;;;;;;5026062;28;20358;-80
2024/04/05 12:12:20;;;;;;;27.30;15.20;;;18.80;76.10;;;;;;5027339;28;20021;-83
2024/04/05 12:14:46;;;;;;;26.47;13.77;;;18.90;75.80;;;;;;5022108;28;20021;-81
2024/04/05 12:17:12;;;;;;;18.93;13.80;;;19.00;75.60;;;;;;5028471;28;20034;-80
2024/04/05 12:19:39;;;;;;;17.73;12.43;;;19.10;75.50;;;;;;5022529;28;20054;-81
2024/04/05 12:22:05;;;;;;;19.70;12.10;;;19.10;75.70;;;;;;5027937;28;20031;-81
2024/04/05 12:24:31;;;;;;;17.88;11.00;;;19.10;75.50;;;;;;5021978;28;20029;-84
2024/04/05 12:26:57;;;;;;;16.30;11.10;;;19.20;75.50;;;;;;5031172;28;20033;-80
2024/04/05 12:29:23;;;;;;;18.60;11.13;;;19.20;75.50;;;;;;5025490;28;20117;-83
2024/04/05 12:31:52;;;;;;;16.92;10.75;;;19.20;75.50;;;;;;5019460;28;20041;-83
2024/04/05 12:34:18;;;;;;;21.83;11.13;;;19.20;75.50;;;;;;5029810;28;20021;-82
2024/04/05 12:36:43;;;;;;;14.57;9.27;;;19.30;75.30;;;;;;5029919;28;20083;-79
2024/04/05 12:39:25;;;;;;;12.83;8.80;;;19.40;75.20;;;;;;5022852;28;20022;-80
2024/04/05 12:41:52;;;;;;;15.50;9.80;;;19.50;74.90;;;;;;5029175;28;20029;-83
2024/04/05 12:44:18;;;;;;;14.75;8.70;;;19.50;74.90;;;;;;5017850;28;20022;-81